TimeCET,TemperatureF,Dew PointF,Humidity,Sea Level PressureIn,VisibilityMPH,Wind Direction,Wind SpeedMPH,Gust SpeedMPH,PrecipitationIn,Events,Conditions,WindDirDegrees,DateUTC
12:00 AM,37.4,33.8,87,30.06,5.0,Calm,Calm,-,N/A,,Unknown,0,2013-03-02 23:00:00
5:30 AM,30.2,30.2,100,30.01,3.1,Variable,1.2,-,N/A,,Mist,0,2013-03-03 04:30:00
6:00 AM,32.0,30.2,93,30.01,3.1,Variable,1.2,-,N/A,,Mist,0,2013-03-03 05:00:00
6:30 AM,33.8,32.0,93,30.01,2.5,Variable,1.2,-,N/A,,Mist,0,2013-03-03 05:30:00
7:00 AM,32.0,30.2,93,30.01,2.5,Calm,Calm,-,N/A,,Mist,0,2013-03-03 06:00:00
7:30 AM,32.0,30.2,93,30.01,2.5,Calm,Calm,-,N/A,,Mist,0,2013-03-03 06:30:00
8:00 AM,32.0,30.2,93,30.01,3.1,Calm,Calm,-,N/A,,Mist,0,2013-03-03 07:00:00
8:30 AM,32.0,32.0,100,30.01,5.0,Calm,Calm,-,N/A,,Unknown,0,2013-03-03 07:30:00
9:00 AM,37.4,33.8,87,30.01,5.0,Calm,Calm,-,N/A,,Unknown,0,2013-03-03 08:00:00
9:30 AM,37.4,35.6,93,30.01,5.0,Calm,Calm,-,N/A,,Unknown,0,2013-03-03 08:30:00
10:00 AM,39.2,33.8,81,30.01,-9999.0,Calm,Calm,-,N/A,,Clear,0,2013-03-03 09:00:00
10:30 AM,42.8,35.6,76,30.01,-9999.0,Variable,1.2,-,N/A,,Clear,0,2013-03-03 09:30:00
11:00 AM,46.4,35.6,66,30.01,-9999.0,Variable,1.2,-,N/A,,Clear,0,2013-03-03 10:00:00
11:30 AM,50.0,35.6,58,29.98,-9999.0,Variable,1.2,-,N/A,,Clear,0,2013-03-03 10:30:00
12:00 PM,51.8,35.6,54,29.98,-9999.0,NW,1.2,-,N/A,,Clear,320,2013-03-03 11:00:00
12:30 PM,55.4,37.4,51,29.98,-9999.0,Variable,1.2,-,N/A,,Clear,0,2013-03-03 11:30:00
1:00 PM,57.2,39.2,51,29.95,-9999.0,SW,9.2,-,N/A,,Clear,230,2013-03-03 12:00:00
1:30 PM,57.2,35.6,44,29.95,-9999.0,SSW,12.7,-,N/A,,Clear,200,2013-03-03 12:30:00
2:00 PM,57.2,33.8,41,29.92,-9999.0,South,6.9,-,N/A,,Clear,170,2013-03-03 13:00:00
2:30 PM,59.0,33.8,39,29.92,-9999.0,SE,9.2,-,N/A,,Clear,140,2013-03-03 13:30:00
3:00 PM,59.0,32.0,36,29.89,-9999.0,SSW,12.7,25.3,N/A,,Clear,210,2013-03-03 14:00:00
3:30 PM,60.8,30.2,31,29.89,-9999.0,SE,10.4,-,N/A,,Clear,140,2013-03-03 14:30:00
4:00 PM,60.8,28.4,29,29.89,-9999.0,SSE,13.8,-,N/A,,Clear,150,2013-03-03 15:00:00
4:30 PM,59.0,28.4,31,29.86,-9999.0,SE,13.8,-,N/A,,Clear,140,2013-03-03 15:30:00
5:00 PM,59.0,30.2,34,29.86,-9999.0,SE,16.1,-,N/A,,Clear,140,2013-03-03 16:00:00
5:30 PM,59.0,30.2,34,29.86,-9999.0,SSE,9.2,-,N/A,,Clear,150,2013-03-03 16:30:00
6:00 PM,59.0,30.2,34,29.86,-9999.0,SSE,11.5,-,N/A,,Clear,160,2013-03-03 17:00:00
7:00 PM,53.6,35.6,51,29.89,-9999.0,South,8.1,-,N/A,,Clear,180,2013-03-03 18:00:00
7:30 PM,53.6,37.4,54,29.89,-9999.0,South,8.1,-,N/A,,Clear,170,2013-03-03 18:30:00
8:00 PM,53.6,37.4,54,29.89,-9999.0,SSE,13.8,-,N/A,,Clear,150,2013-03-03 19:00:00
8:30 PM,53.6,35.6,51,29.89,-9999.0,ESE,11.5,-,N/A,,Clear,120,2013-03-03 19:30:00
9:00 PM,53.6,35.6,51,29.89,-9999.0,ESE,9.2,-,N/A,,Clear,120,2013-03-03 20:00:00
9:30 PM,53.6,37.4,54,29.89,-9999.0,Variable,5.8,-,N/A,,Clear,0,2013-03-03 20:30:00
10:00 PM,51.8,37.4,58,29.89,6.2,East,11.5,-,N/A,,Partly Cloudy,90,2013-03-03 21:00:00
10:30 PM,51.8,37.4,58,29.89,6.2,East,9.2,-,N/A,,Partly Cloudy,80,2013-03-03 21:30:00
11:00 PM,51.8,37.4,58,29.89,6.2,East,10.4,-,N/A,,Mostly Cloudy,90,2013-03-03 22:00:00
11:30 PM,51.8,39.2,62,29.89,6.2,ESE,13.8,-,N/A,,Mostly Cloudy,110,2013-03-03 22:30:00